Time;durP1;ratioP1;P1;durP2;ratioP2;P2;SDS_P1;SDS_P2;PMS_P1;PMS_P2;Temp;Humidity;BMP_temperature;BMP_pressure;BME280_temperature;BME280_humidity;BME280_pressure;Samples;Min_cycle;Max_cycle;Signal;HPM_P1;HPM_P2
2021/05/15 00:01:13;;;;;;;2.70;2.43;;;12.60;99.90;;;;;;5040877;28;20457;-68
2021/05/15 00:03:40;;;;;;;2.53;2.30;;;12.50;99.90;;;;;;5045594;28;20483;-69
2021/05/15 00:06:07;;;;;;;2.67;2.43;;;12.50;99.90;;;;;;5048920;28;20456;-69
2021/05/15 00:08:33;;;;;;;4.60;2.60;;;12.60;99.90;;;;;;5045771;28;20818;-69
2021/05/15 00:11:00;;;;;;;3.80;3.17;;;12.70;99.90;;;;;;5043722;28;20895;-68
2021/05/15 00:13:27;;;;;;;3.40;2.80;;;12.70;99.90;;;;;;5041960;28;20476;-69
2021/05/15 00:15:54;;;;;;;4.47;3.10;;;12.70;99.90;;;;;;5045892;28;20990;-69
2021/05/15 00:18:20;;;;;;;4.07;2.97;;;12.70;99.90;;;;;;5048639;28;20539;-69
2021/05/15 00:20:47;;;;;;;5.40;3.30;;;12.60;99.90;;;;;;5045423;28;20483;-68
2021/05/15 00:23:14;;;;;;;3.73;3.00;;;12.60;99.90;;;;;;5044649;28;20656;-68
2021/05/15 00:25:41;;;;;;;3.47;2.80;;;12.50;99.90;;;;;;5045536;28;20459;-68
2021/05/15 00:28:07;;;;;;;5.20;3.10;;;12.40;99.90;;;;;;5049999;28;21006;-70
2021/05/15 00:30:34;;;;;;;4.27;3.00;;;12.40;99.90;;;;;;5049891;28;20975;-69
2021/05/15 00:33:00;;;;;;;8.47;4.00;;;12.30;99.90;;;;;;5043601;28;20503;-69
2021/05/15 00:35:27;;;;;;;5.93;2.63;;;12.30;99.90;;;;;;5046507;28;20546;-69
2021/05/15 00:37:53;;;;;;;4.87;3.00;;;12.30;99.90;;;;;;5046217;28;20517;-69
2021/05/15 00:40:20;;;;;;;3.47;3.17;;;12.30;99.90;;;;;;5050359;28;20486;-69
2021/05/15 00:42:47;;;;;;;5.83;2.83;;;12.20;99.90;;;;;;5046323;28;20883;-69
2021/05/15 00:45:16;;;;;;;3.83;3.30;;;12.30;99.90;;;;;;5041602;28;20915;-69
2021/05/15 00:47:43;;;;;;;2.63;2.03;;;12.30;99.90;;;;;;5041205;28;20542;-68
2021/05/15 00:50:10;;;;;;;2.77;2.47;;;12.10;99.90;;;;;;5048296;28;20459;-69
2021/05/15 00:52:37;;;;;;;7.93;3.10;;;11.90;99.90;;;;;;5043872;28;20483;-69
2021/05/15 00:55:08;;;;;;;3.93;2.80;;;11.80;99.90;;;;;;5044011;28;20450;-69
2021/05/15 00:57:36;;;;;;;3.73;2.77;;;11.80;99.90;;;;;;5046111;28;20434;-69
2021/05/15 01:00:06;;;;;;;3.80;2.77;;;11.90;99.90;;;;;;5044408;28;20484;-69
2021/05/15 01:02:32;;;;;;;3.03;2.67;;;11.80;99.90;;;;;;5040917;28;20912;-68
2021/05/15 01:04:58;;;;;;;3.10;2.80;;;11.80;99.90;;;;;;5050852;28;20980;-69
2021/05/15 01:07:25;;;;;;;3.60;2.83;;;11.90;99.90;;;;;;5045463;28;20995;-68
2021/05/15 01:09:51;;;;;;;4.53;2.80;;;11.90;99.90;;;;;;5045706;28;20490;-69
2021/05/15 01:12:18;;;;;;;6.17;3.97;;;11.60;99.90;;;;;;5043185;28;20510;-68
2021/05/15 01:14:45;;;;;;;4.00;3.70;;;11.50;99.90;;;;;;5042379;28;20510;-69
2021/05/15 01:17:12;;;;;;;5.00;2.90;;;11.60;99.90;;;;;;5042750;28;20941;-69
2021/05/15 01:19:39;;;;;;;4.63;3.13;;;11.60;99.90;;;;;;5045189;28;20463;-69
2021/05/15 01:22:08;;;;;;;3.90;3.27;;;11.70;99.90;;;;;;5039475;28;20487;-68
2021/05/15 01:24:34;;;;;;;3.63;2.90;;;11.80;99.90;;;;;;5043733;28;20544;-68
2021/05/15 01:27:04;;;;;;;3.80;3.17;;;11.70;99.90;;;;;;5047182;28;20542;-68
2021/05/15 01:29:31;;;;;;;4.10;2.93;;;11.60;99.90;;;;;;5041997;28;20518;-69
2021/05/15 01:31:57;;;;;;;2.93;2.50;;;11.70;99.90;;;;;;5045517;28;20921;-70
2021/05/15 01:34:24;;;;;;;2.87;2.63;;;11.70;99.90;;;;;;5045705;28;20996;-69
2021/05/15 01:36:50;;;;;;;4.43;3.33;;;11.80;99.90;;;;;;5043541;28;20554;-68
2021/05/15 01:39:18;;;;;;;3.00;2.70;;;11.50;99.90;;;;;;5049417;28;20910;-69
2021/05/15 01:41:44;;;;;;;3.77;3.20;;;11.20;99.90;;;;;;5051494;28;20475;-68
2021/05/15 01:44:11;;;;;;;3.83;2.80;;;11.20;99.90;;;;;;5053198;28;20513;-68
2021/05/15 01:46:38;;;;;;;5.37;3.30;;;11.20;99.90;;;;;;5046954;28;20521;-68
2021/05/15 01:49:05;;;;;;;4.60;3.17;;;11.20;99.90;;;;;;5050295;28;20537;-69
2021/05/15 01:51:31;;;;;;;3.73;3.00;;;11.30;99.90;;;;;;5052771;28;20543;-69
2021/05/15 01:53:58;;;;;;;3.80;3.20;;;11.30;99.90;;;;;;5043274;28;20514;-68
2021/05/15 01:56:27;;;;;;;3.10;2.80;;;11.20;99.90;;;;;;5066322;28;20459;-69
2021/05/15 01:58:53;;;;;;;4.07;3.67;;;11.20;99.90;;;;;;5062767;28;20479;-69
2021/05/15 02:01:22;;;;;;;3.90;3.03;;;11.10;99.90;;;;;;5065630;28;20459;-68
2021/05/15 02:03:49;;;;;;;2.90;2.60;;;11.20;99.90;;;;;;5050221;28;20560;-69
2021/05/15 02:06:16;;;;;;;6.07;4.23;;;11.00;99.90;;;;;;5047879;28;20458;-69
2021/05/15 02:08:45;;;;;;;2.70;2.37;;;10.70;99.90;;;;;;5044727;28;20525;-68
2021/05/15 02:11:12;;;;;;;2.90;2.60;;;10.60;99.90;;;;;;5050196;28;21151;-68
2021/05/15 02:13:39;;;;;;;4.17;3.40;;;10.60;99.90;;;;;;5048143;28;20468;-68
2021/05/15 02:16:06;;;;;;;4.50;3.57;;;10.60;99.90;;;;;;5047203;28;20975;-69
2021/05/15 02:18:33;;;;;;;3.50;2.83;;;10.70;99.90;;;;;;5049620;28;20517;-69
2021/05/15 02:20:59;;;;;;;3.43;2.63;;;10.70;99.90;;;;;;5050210;28;20534;-69
2021/05/15 02:23:26;;;;;;;3.90;3.03;;;10.70;99.90;;;;;;5044822;28;20498;-69
2021/05/15 02:25:54;;;;;;;3.40;3.03;;;10.70;99.90;;;;;;5047157;28;20464;-68
2021/05/15 02:28:21;;;;;;;3.97;2.73;;;10.60;99.90;;;;;;5047193;28;20764;-69
2021/05/15 02:30:50;;;;;;;3.27;2.80;;;10.70;99.90;;;;;;5044888;28;20969;-69
2021/05/15 02:33:17;;;;;;;4.03;3.10;;;10.60;99.90;;;;;;5045189;28;20566;-69
2021/05/15 02:35:43;;;;;;;3.53;3.20;;;10.50;99.90;;;;;;5048268;28;20467;-68
2021/05/15 02:38:12;;;;;;;8.93;3.63;;;10.40;99.90;;;;;;5047601;28;20584;-68
2021/05/15 02:40:39;;;;;;;3.43;3.13;;;10.30;99.90;;;;;;5049033;28;20567;-69
2021/05/15 02:43:05;;;;;;;7.07;4.00;;;10.30;99.90;;;;;;5043254;28;20854;-70
2021/05/15 02:45:32;;;;;;;5.30;3.33;;;10.40;99.90;;;;;;5047080;28;20587;-69
2021/05/15 02:48:00;;;;;;;4.90;3.33;;;10.40;99.90;;;;;;5046049;28;20488;-69
2021/05/15 02:50:27;;;;;;;4.53;3.37;;;10.40;99.90;;;;;;5049997;28;20527;-69
2021/05/15 02:52:54;;;;;;;3.60;2.67;;;10.40;99.90;;;;;;5045544;28;20539;-68
2021/05/15 02:55:22;;;;;;;3.73;3.33;;;10.30;99.90;;;;;;5045298;28;20492;-69
2021/05/15 02:57:49;;;;;;;4.67;2.67;;;10.30;99.90;;;;;;5046337;28;20521;-69
2021/05/15 03:00:19;;;;;;;3.10;2.73;;;10.30;99.90;;;;;;5044406;28;20434;-69
2021/05/15 03:02:45;;;;;;;7.00;3.80;;;10.30;99.90;;;;;;5047392;28;20574;-68
2021/05/15 03:05:14;;;;;;;4.80;3.40;;;10.30;99.90;;;;;;5048551;28;20450;-68
2021/05/15 03:07:41;;;;;;;7.07;3.70;;;10.20;99.90;;;;;;5044943;28;20484;-68
2021/05/15 03:10:09;;;;;;;4.23;3.53;;;10.20;99.90;;;;;;5042930;28;20537;-68
2021/05/15 03:12:36;;;;;;;5.13;4.00;;;10.20;99.90;;;;;;5045836;28;20538;-68
2021/05/15 03:15:07;;;;;;;6.33;3.30;;;10.20;99.90;;;;;;5048436;28;20441;-67
2021/05/15 03:17:34;;;;;;;5.90;4.73;;;10.30;99.90;;;;;;5047808;28;20985;-68
2021/05/15 03:20:00;;;;;;;4.20;3.60;;;10.40;99.90;;;;;;5048277;28;20495;-68
2021/05/15 03:22:27;;;;;;;5.60;3.90;;;10.40;99.90;;;;;;5042591;28;20917;-68
2021/05/15 03:24:54;;;;;;;4.97;3.90;;;10.30;99.90;;;;;;5048098;28;20495;-68
2021/05/15 03:27:20;;;;;;;5.30;4.47;;;10.30;99.90;;;;;;5049257;28;20437;-68
2021/05/15 03:29:47;;;;;;;8.50;4.37;;;10.40;99.90;;;;;;5050081;28;20516;-68
2021/05/15 03:32:13;;;;;;;5.73;4.10;;;10.30;99.90;;;;;;5044522;28;20923;-68
2021/05/15 03:34:40;;;;;;;5.77;4.17;;;10.30;99.90;;;;;;5046689;28;21029;-69
2021/05/15 03:37:06;;;;;;;6.07;3.30;;;10.30;99.90;;;;;;5046795;28;20455;-68
2021/05/15 03:39:34;;;;;;;5.50;3.50;;;10.20;99.90;;;;;;5049460;28;20442;-68
2021/05/15 03:42:00;;;;;;;4.43;2.83;;;10.20;99.90;;;;;;5047667;28;20913;-69
2021/05/15 03:44:27;;;;;;;3.60;3.07;;;10.10;99.90;;;;;;5042291;28;20869;-68
2021/05/15 03:46:54;;;;;;;3.67;3.27;;;10.10;99.90;;;;;;5047977;28;20553;-67
2021/05/15 03:49:20;;;;;;;4.80;4.27;;;10.20;99.90;;;;;;5042968;28;20464;-68
2021/05/15 03:51:47;;;;;;;4.80;4.10;;;10.30;99.90;;;;;;5047466;28;20492;-67
2021/05/15 03:54:13;;;;;;;5.80;4.80;;;10.30;99.90;;;;;;5042376;28;20548;-68
2021/05/15 03:56:40;;;;;;;5.63;3.87;;;10.30;99.90;;;;;;5045648;28;20483;-68
2021/05/15 03:59:07;;;;;;;3.07;2.77;;;10.40;99.90;;;;;;5045064;28;20491;-68
2021/05/15 04:01:33;;;;;;;3.73;3.33;;;10.40;99.90;;;;;;5045613;28;20513;-68
2021/05/15 04:04:00;;;;;;;3.97;3.23;;;10.50;99.90;;;;;;5045063;28;20590;-68
2021/05/15 04:06:26;;;;;;;5.57;4.50;;;10.50;99.90;;;;;;5046078;28;20464;-68
2021/05/15 04:08:53;;;;;;;5.00;3.97;;;10.50;99.90;;;;;;5049132;28;20840;-69
2021/05/15 04:11:19;;;;;;;4.93;4.43;;;10.60;99.90;;;;;;5046971;28;20526;-68
2021/05/15 04:13:50;;;;;;;4.87;3.10;;;10.70;99.90;;;;;;5047657;28;20547;-68
2021/05/15 04:16:23;;;;;;;4.53;3.90;;;10.60;99.90;;;;;;5046441;28;20821;-68
2021/05/15 04:18:49;;;;;;;5.60;3.83;;;10.70;99.90;;;;;;5049162;28;20458;-68
2021/05/15 04:21:16;;;;;;;5.67;3.53;;;10.70;99.90;;;;;;5045429;28;20490;-67
2021/05/15 04:23:43;;;;;;;5.30;3.87;;;10.60;99.90;;;;;;5045198;28;20457;-70
2021/05/15 04:26:11;;;;;;;5.90;3.90;;;10.60;99.90;;;;;;5046687;28;20567;-69
2021/05/15 04:28:38;;;;;;;5.73;3.90;;;10.50;99.90;;;;;;5048379;28;20450;-68
2021/05/15 04:31:06;;;;;;;4.07;3.27;;;10.70;99.90;;;;;;5046716;28;20442;-68
2021/05/15 04:33:33;;;;;;;4.30;3.57;;;10.80;99.90;;;;;;5039418;28;21235;-69
2021/05/15 04:36:00;;;;;;;4.63;3.80;;;11.00;99.90;;;;;;5048491;28;20452;-69
2021/05/15 04:38:27;;;;;;;4.13;3.43;;;11.20;99.90;;;;;;5049272;28;20521;-70
2021/05/15 04:40:53;;;;;;;4.27;3.63;;;11.30;99.90;;;;;;5048576;28;20526;-68
2021/05/15 04:43:20;;;;;;;4.60;3.60;;;11.40;99.90;;;;;;5039527;28;20626;-68
2021/05/15 04:45:46;;;;;;;8.10;5.23;;;11.50;99.90;;;;;;5045567;28;20536;-69
2021/05/15 04:48:13;;;;;;;3.90;3.60;;;11.70;99.90;;;;;;5045685;28;20559;-68
2021/05/15 04:50:40;;;;;;;5.23;4.73;;;11.80;99.90;;;;;;5045779;28;21047;-69
2021/05/15 04:53:07;;;;;;;5.90;3.87;;;11.70;99.90;;;;;;5041085;28;20563;-68
2021/05/15 04:55:33;;;;;;;3.43;3.13;;;11.70;99.90;;;;;;5052374;28;20517;-70
2021/05/15 04:58:00;;;;;;;4.87;3.53;;;11.80;99.90;;;;;;5052308;28;20491;-74
2021/05/15 05:00:27;;;;;;;4.00;2.60;;;11.90;99.90;;;;;;5047693;28;20467;-69
2021/05/15 05:02:54;;;;;;;4.93;2.83;;;12.10;99.90;;;;;;5046024;28;20478;-68
2021/05/15 05:05:22;;;;;;;4.53;2.97;;;12.00;99.90;;;;;;5048267;28;20495;-67
2021/05/15 05:07:50;;;;;;;3.10;2.80;;;11.90;99.90;;;;;;5048409;28;20491;-67
2021/05/15 05:10:17;;;;;;;6.33;3.07;;;12.00;99.90;;;;;;5046012;28;20437;-68
2021/05/15 05:12:44;;;;;;;4.10;3.30;;;11.90;99.90;;;;;;5044750;28;20472;-68
2021/05/15 05:15:11;;;;;;;3.80;3.10;;;11.90;99.90;;;;;;5045773;28;20499;-68
2021/05/15 05:17:37;;;;;;;5.17;3.60;;;12.00;99.90;;;;;;5045644;28;20533;-68
2021/05/15 05:20:04;;;;;;;2.33;2.13;;;12.20;99.90;;;;;;5045520;28;21222;-68
2021/05/15 05:22:32;;;;;;;3.23;2.60;;;12.20;99.90;;;;;;5038967;28;20518;-68
2021/05/15 05:24:58;;;;;;;3.80;2.87;;;12.20;99.90;;;;;;5046115;28;20455;-68
2021/05/15 05:27:24;;;;;;;3.63;2.17;;;12.20;99.90;;;;;;5042741;28;20964;-69
2021/05/15 05:29:51;;;;;;;3.00;2.50;;;12.20;99.90;;;;;;5048035;28;20459;-68
2021/05/15 05:32:19;;;;;;;2.40;2.10;;;12.20;99.90;;;;;;5042675;28;20518;-68
2021/05/15 05:34:45;;;;;;;2.30;2.10;;;12.20;99.90;;;;;;5044508;28;20513;-68
2021/05/15 05:37:11;;;;;;;4.60;2.67;;;12.00;99.90;;;;;;5047109;28;20550;-69
2021/05/15 05:39:40;;;;;;;4.73;2.87;;;11.70;99.90;;;;;;5047720;28;20894;-68
2021/05/15 05:42:07;;;;;;;2.57;2.17;;;11.80;99.90;;;;;;5041759;28;21021;-68
2021/05/15 05:44:33;;;;;;;4.27;2.67;;;11.70;99.90;;;;;;5044820;28;20438;-69
2021/05/15 05:47:00;;;;;;;2.93;2.40;;;11.60;99.90;;;;;;5039114;28;20456;-68
2021/05/15 05:49:26;;;;;;;3.60;3.27;;;11.70;99.90;;;;;;5044668;28;20543;-69
2021/05/15 05:51:53;;;;;;;2.50;2.17;;;11.80;99.90;;;;;;5042522;28;20568;-68
2021/05/15 05:54:19;;;;;;;3.50;2.30;;;11.90;99.90;;;;;;5043143;28;20983;-69
2021/05/15 05:56:46;;;;;;;3.50;2.70;;;12.00;99.90;;;;;;5042799;28;20513;-69
2021/05/15 05:59:13;;;;;;;5.60;3.07;;;12.00;99.90;;;;;;5044338;28;20546;-69
2021/05/15 06:01:39;;;;;;;3.43;3.03;;;12.10;99.90;;;;;;5047699;28;20840;-69
2021/05/15 06:04:06;;;;;;;4.80;3.83;;;12.20;99.90;;;;;;5046096;28;20485;-69
2021/05/15 06:06:33;;;;;;;4.00;2.17;;;12.40;99.90;;;;;;5044512;28;20475;-69
2021/05/15 06:08:59;;;;;;;5.80;3.20;;;12.60;99.90;;;;;;5045193;28;20744;-69
2021/05/15 06:11:25;;;;;;;3.30;2.63;;;12.70;99.90;;;;;;5044083;28;20465;-69
2021/05/15 06:13:53;;;;;;;6.50;3.30;;;12.80;99.90;;;;;;5043253;28;20538;-69
2021/05/15 06:16:19;;;;;;;4.57;3.37;;;12.80;99.90;;;;;;5049125;28;20439;-69
2021/05/15 06:18:46;;;;;;;3.10;2.63;;;13.00;99.90;;;;;;5048103;28;20456;-69
2021/05/15 06:21:13;;;;;;;4.00;3.60;;;13.00;99.90;;;;;;5042550;28;20459;-69
2021/05/15 06:23:39;;;;;;;5.90;3.73;;;13.10;99.90;;;;;;5045195;28;20470;-69
2021/05/15 06:26:09;;;;;;;3.27;2.93;;;13.50;99.90;;;;;;5049380;28;20454;-69
2021/05/15 06:28:35;;;;;;;3.80;2.67;;;14.20;99.90;;;;;;5050919;28;20455;-69
2021/05/15 06:31:04;;;;;;;3.33;3.07;;;15.10;99.90;;;;;;5049532;28;20497;-69
2021/05/15 06:33:30;;;;;;;5.80;3.27;;;15.50;99.90;;;;;;5050179;28;20471;-69
2021/05/15 06:35:57;;;;;;;6.07;3.47;;;15.20;99.90;;;;;;5050905;28;20535;-69
2021/05/15 06:38:23;;;;;;;5.87;3.87;;;15.20;99.90;;;;;;5052714;28;20538;-69
2021/05/15 06:40:50;;;;;;;8.23;3.90;;;14.90;99.90;;;;;;5052514;28;20486;-69
2021/05/15 06:43:17;;;;;;;6.00;4.37;;;14.60;99.90;;;;;;5046182;28;20860;-68
2021/05/15 06:45:43;;;;;;;3.03;2.73;;;14.40;99.90;;;;;;5049915;28;20451;-70
2021/05/15 06:48:11;;;;;;;6.40;4.20;;;14.40;99.90;;;;;;5051115;28;20478;-69
2021/05/15 06:50:38;;;;;;;4.03;3.63;;;14.40;99.90;;;;;;5046395;28;21036;-70
2021/05/15 06:53:04;;;;;;;7.87;3.40;;;14.60;99.90;;;;;;5049270;28;20498;-69
2021/05/15 06:55:31;;;;;;;5.40;4.30;;;14.80;99.90;;;;;;5050119;28;20451;-69
2021/05/15 06:57:57;;;;;;;6.00;3.73;;;14.70;99.90;;;;;;5051060;28;20475;-69
2021/05/15 07:00:24;;;;;;;5.17;4.30;;;14.50;99.90;;;;;;5050955;28;20501;-70
2021/05/15 07:02:50;;;;;;;4.17;3.37;;;14.30;99.90;;;;;;5047995;28;20568;-69
2021/05/15 07:05:18;;;;;;;6.33;4.77;;;14.20;99.90;;;;;;5051164;28;20423;-70
2021/05/15 07:07:45;;;;;;;5.20;3.60;;;14.30;99.90;;;;;;5050427;28;20448;-69
2021/05/15 07:10:12;;;;;;;6.07;3.40;;;14.10;99.90;;;;;;5050373;28;20490;-69
2021/05/15 07:12:39;;;;;;;5.40;3.90;;;14.10;99.90;;;;;;5046647;28;20992;-69
2021/05/15 07:15:07;;;;;;;7.63;4.93;;;14.00;99.90;;;;;;5050157;28;20497;-69
2021/05/15 07:17:34;;;;;;;6.37;5.33;;;13.90;99.90;;;;;;5048921;28;20471;-69
2021/05/15 07:20:01;;;;;;;7.40;4.10;;;13.70;99.90;;;;;;5049310;28;20534;-69
2021/05/15 07:22:28;;;;;;;5.20;3.87;;;13.50;99.90;;;;;;5048540;28;20923;-69
2021/05/15 07:24:56;;;;;;;7.53;5.00;;;13.30;99.90;;;;;;5048588;28;20565;-69
2021/05/15 07:27:23;;;;;;;11.00;6.17;;;13.40;99.90;;;;;;5049629;28;20908;-69
2021/05/15 07:29:52;;;;;;;14.60;6.87;;;13.40;99.90;;;;;;5050546;28;20475;-69
2021/05/15 07:32:19;;;;;;;12.10;5.77;;;13.50;99.90;;;;;;5045067;28;20491;-69
2021/05/15 07:34:46;;;;;;;9.37;6.30;;;13.70;99.90;;;;;;5051026;28;20928;-70
2021/05/15 07:37:13;;;;;;;11.70;5.23;;;13.90;99.90;;;;;;5050286;28;20470;-69
2021/05/15 07:39:42;;;;;;;10.70;6.13;;;13.90;99.90;;;;;;5052803;28;20526;-71
2021/05/15 07:42:09;;;;;;;12.27;8.40;;;14.00;99.90;;;;;;5047859;28;21152;-70
2021/05/15 07:44:35;;;;;;;16.17;7.43;;;14.00;99.90;;;;;;5047827;28;21674;-71
2021/05/15 07:47:02;;;;;;;11.50;5.80;;;14.00;99.90;;;;;;5046453;28;20562;-70
2021/05/15 07:49:29;;;;;;;10.40;6.73;;;13.90;99.90;;;;;;5050974;28;20451;-69
2021/05/15 07:51:55;;;;;;;10.87;7.27;;;14.00;99.90;;;;;;5048530;28;20514;-69
2021/05/15 07:54:23;;;;;;;11.77;7.37;;;14.10;99.90;;;;;;5045550;28;20456;-69
2021/05/15 07:56:51;;;;;;;15.53;8.10;;;13.80;99.90;;;;;;5053311;28;20462;-71
2021/05/15 07:59:17;;;;;;;13.80;6.73;;;13.80;99.90;;;;;;5049361;28;20491;-69
2021/05/15 08:01:44;;;;;;;12.43;7.50;;;13.80;99.90;;;;;;5042737;28;20491;-69
2021/05/15 08:04:11;;;;;;;6.93;5.13;;;13.80;99.90;;;;;;5043295;28;20487;-69
2021/05/15 08:06:37;;;;;;;9.10;5.70;;;13.70;99.90;;;;;;5052710;28;20490;-70
2021/05/15 08:09:05;;;;;;;10.97;6.43;;;13.60;99.90;;;;;;5051172;28;20454;-70
2021/05/15 08:11:34;;;;;;;17.00;7.00;;;13.40;99.90;;;;;;5049588;28;20530;-69
2021/05/15 08:14:02;;;;;;;10.20;7.73;;;13.30;99.90;;;;;;5047623;28;20495;-70
2021/05/15 08:16:28;;;;;;;10.20;6.33;;;13.20;99.90;;;;;;5048299;28;20436;-70
2021/05/15 08:18:56;;;;;;;7.53;4.80;;;13.30;99.90;;;;;;5049064;28;20452;-70
2021/05/15 08:21:23;;;;;;;5.30;4.73;;;13.40;99.90;;;;;;5047658;28;20459;-69
2021/05/15 08:23:49;;;;;;;6.67;4.90;;;13.40;99.90;;;;;;5045014;28;20467;-69
2021/05/15 08:26:16;;;;;;;6.10;4.67;;;13.30;99.90;;;;;;5048171;28;20487;-69
2021/05/15 08:28:46;;;;;;;6.30;5.37;;;13.30;99.90;;;;;;5049794;28;20463;-70
2021/05/15 08:31:13;;;;;;;8.50;5.53;;;13.30;99.90;;;;;;5046949;28;20760;-69
2021/05/15 08:33:40;;;;;;;7.37;5.67;;;13.30;99.90;;;;;;5046046;28;20486;-69
2021/05/15 08:36:08;;;;;;;9.43;5.63;;;13.70;99.90;;;;;;5046995;28;20471;-69
2021/05/15 08:38:34;;;;;;;10.60;6.93;;;14.50;99.90;;;;;;5049254;28;20447;-69
2021/05/15 08:41:01;;;;;;;8.87;5.80;;;14.80;99.90;;;;;;5046127;28;20511;-69
2021/05/15 08:43:28;;;;;;;6.40;4.37;;;14.70;99.90;;;;;;5043816;28;20554;-73
2021/05/15 08:45:57;;;;;;;15.23;6.67;;;14.50;99.90;;;;;;5053746;28;20458;-69
2021/05/15 08:48:27;;;;;;;8.47;5.83;;;14.50;99.90;;;;;;5047878;28;20459;-69
2021/05/15 08:50:54;;;;;;;12.33;6.10;;;14.40;99.90;;;;;;5046226;28;20520;-69
2021/05/15 08:53:21;;;;;;;7.63;3.60;;;14.70;99.90;;;;;;5046048;28;20587;-69
2021/05/15 08:55:48;;;;;;;8.60;5.10;;;15.10;99.90;;;;;;5049364;28;21091;-69
2021/05/15 08:58:14;;;;;;;8.43;5.63;;;15.20;99.90;;;;;;5047747;28;20479;-69
2021/05/15 09:00:41;;;;;;;8.60;5.70;;;15.40;99.90;;;;;;5045532;28;20448;-69
2021/05/15 09:03:10;;;;;;;5.93;4.97;;;15.50;99.90;;;;;;5041507;28;20576;-68
2021/05/15 09:05:40;;;;;;;6.73;4.63;;;15.50;99.90;;;;;;5044416;28;20458;-69
2021/05/15 09:08:10;;;;;;;4.57;3.90;;;15.90;99.90;;;;;;5039438;28;20550;-69
2021/05/15 09:10:38;;;;;;;7.63;5.13;;;16.70;99.90;;;;;;5042797;28;20470;-69
2021/05/15 09:13:10;;;;;;;6.90;4.23;;;17.00;99.90;;;;;;5044787;28;20846;-69
2021/05/15 09:15:41;;;;;;;8.43;5.80;;;16.90;99.90;;;;;;5043272;28;20456;-69
2021/05/15 09:18:08;;;;;;;5.17;3.93;;;17.10;99.90;;;;;;5042677;28;20459;-69
2021/05/15 09:20:37;;;;;;;5.20;4.63;;;17.30;99.90;;;;;;5046739;28;20828;-69
2021/05/15 09:23:15;;;;;;;7.50;4.90;;;17.30;99.90;;;;;;5040899;28;20950;-69
2021/05/15 09:25:42;;;;;;;5.30;4.80;;;17.30;99.90;;;;;;5043298;28;20455;-70
2021/05/15 09:28:08;;;;;;;8.73;5.53;;;17.70;99.90;;;;;;5043720;28;20459;-69
2021/05/15 09:30:35;;;;;;;8.23;5.43;;;17.80;99.90;;;;;;5044741;28;20553;-69
2021/05/15 09:33:14;;;;;;;6.70;4.83;;;18.00;99.90;;;;;;5045454;28;20567;-69
2021/05/15 09:35:42;;;;;;;6.90;5.37;;;17.80;99.90;;;;;;5046891;28;20455;-69
2021/05/15 09:38:09;;;;;;;6.50;5.83;;;17.40;99.90;;;;;;5044122;28;20463;-69
2021/05/15 09:40:35;;;;;;;4.60;3.80;;;17.70;99.90;;;;;;5046353;28;21819;-68
2021/05/15 09:43:03;;;;;;;5.97;4.73;;;18.00;99.90;;;;;;5045040;28;20522;-68
2021/05/15 09:45:31;;;;;;;5.77;3.90;;;17.80;99.90;;;;;;5043878;28;21082;-67
2021/05/15 09:48:00;;;;;;;6.50;5.30;;;17.40;99.90;;;;;;5045980;28;20459;-68
2021/05/15 09:50:29;;;;;;;19.13;12.37;;;17.30;99.90;;;;;;5042282;28;20551;-68
2021/05/15 09:53:08;;;;;;;7.00;4.80;;;16.80;99.90;;;;;;5045501;28;20482;-69
2021/05/15 09:55:36;;;;;;;9.27;4.40;;;17.50;99.90;;;;;;5046846;28;20542;-68
2021/05/15 09:58:05;;;;;;;4.00;3.20;;;17.80;99.90;;;;;;5046427;28;20459;-68
2021/05/15 10:00:43;;;;;;;6.50;4.70;;;17.60;99.90;;;;;;5048758;28;20864;-68
2021/05/15 10:03:21;;;;;;;4.20;3.80;;;17.00;99.90;;;;;;5045114;28;20479;-69
2021/05/15 10:05:58;;;;;;;4.37;3.20;;;16.80;99.90;;;;;;5047129;28;20459;-69
2021/05/15 10:08:26;;;;;;;3.10;2.80;;;16.90;99.90;;;;;;5047559;28;20546;-68
2021/05/15 10:10:53;;;;;;;5.50;4.50;;;17.80;99.90;;;;;;5050890;28;20459;-69
2021/05/15 10:13:20;;;;;;;4.80;3.90;;;19.50;99.90;;;;;;5045380;28;20537;-70
2021/05/15 10:15:47;;;;;;;5.60;3.60;;;20.20;99.90;;;;;;5048850;28;20454;-69
2021/05/15 10:18:14;;;;;;;4.67;3.30;;;19.70;99.90;;;;;;5048997;28;20613;-69
2021/05/15 10:20:41;;;;;;;4.63;3.37;;;19.30;99.90;;;;;;5050253;28;20491;-69
2021/05/15 10:23:20;;;;;;;5.93;4.30;;;19.30;99.90;;;;;;5046479;28;21000;-68
2021/05/15 10:25:48;;;;;;;6.40;4.97;;;19.10;99.90;;;;;;5054876;28;20458;-69
2021/05/15 10:28:28;;;;;;;7.43;5.43;;;18.90;99.90;;;;;;5047331;28;20494;-69
2021/05/15 10:31:06;;;;;;;7.30;5.00;;;17.80;99.90;;;;;;5049636;28;20845;-69
2021/05/15 10:33:33;;;;;;;8.53;5.63;;;16.80;99.90;;;;;;5050672;28;20478;-70
2021/05/15 10:36:03;;;;;;;9.20;6.73;;;16.00;99.90;;;;;;5048755;28;20725;-68
2021/05/15 10:38:34;;;;;;;7.07;5.50;;;15.70;99.90;;;;;;5049814;28;20464;-69
2021/05/15 10:41:21;;;;;;;9.03;5.87;;;16.00;99.90;;;;;;5031437;28;20467;-68
2021/05/15 10:43:49;;;;;;;6.63;4.50;;;16.20;99.90;;;;;;5048612;28;20478;-68
2021/05/15 10:46:25;;;;;;;5.77;4.73;;;16.10;99.90;;;;;;5054980;28;20473;-68
2021/05/15 10:49:16;;;;;;;8.13;5.37;;;16.20;99.90;;;;;;5045585;28;20488;-69
2021/05/15 10:51:44;;;;;;;8.33;5.37;;;16.20;99.90;;;;;;5040962;28;20487;-68
2021/05/15 10:54:14;;;;;;;7.33;4.20;;;16.40;99.90;;;;;;5047766;28;20864;-68
2021/05/15 10:56:42;;;;;;;5.00;3.07;;;16.30;99.90;;;;;;5050160;28;20550;-68
2021/05/15 10:59:10;;;;;;;4.80;3.80;;;16.70;99.90;;;;;;5056450;28;20451;-68
2021/05/15 11:01:51;;;;;;;4.80;3.63;;;17.30;99.90;;;;;;5047820;28;20483;-68
2021/05/15 11:04:26;;;;;;;4.80;3.33;;;18.10;99.90;;;;;;5048715;28;20520;-67
2021/05/15 11:07:04;;;;;;;5.10;4.10;;;19.00;99.90;;;;;;5043159;28;21000;-68
2021/05/15 11:09:32;;;;;;;6.73;3.70;;;19.70;99.90;;;;;;5036762;28;20479;-69
2021/05/15 11:12:16;;;;;;;4.90;3.70;;;20.20;99.90;;;;;;5048902;28;20483;-69
2021/05/15 11:14:44;;;;;;;4.10;3.20;;;21.80;99.90;;;;;;5044290;28;20456;-68
2021/05/15 11:17:24;;;;;;;5.10;3.90;;;22.70;99.90;;;;;;5050347;28;20467;-68
2021/05/15 11:19:54;;;;;;;7.40;6.00;;;21.20;99.90;;;;;;5047222;28;20502;-68
2021/05/15 11:22:33;;;;;;;5.00;4.57;;;22.50;99.90;;;;;;5046172;28;20885;-68
2021/05/15 11:24:59;;;;;;;5.50;4.70;;;23.00;99.90;;;;;;5054467;28;20463;-68
2021/05/15 11:27:26;;;;;;;5.43;3.73;;;23.00;99.90;;;;;;5051229;28;20495;-69
2021/05/15 11:30:08;;;;;;;7.17;4.97;;;23.80;99.90;;;;;;5048871;28;20490;-69
2021/05/15 11:32:35;;;;;;;5.07;4.30;;;23.70;99.90;;;;;;5048717;28;20484;-69
2021/05/15 11:35:04;;;;;;;5.63;4.60;;;23.50;99.90;;;;;;5039901;28;20782;-69
2021/05/15 11:37:30;;;;;;;4.97;3.53;;;22.90;99.90;;;;;;5049684;28;20939;-69
2021/05/15 11:39:57;;;;;;;3.63;3.33;;;22.10;99.90;;;;;;5050267;28;20455;-68
2021/05/15 11:42:29;;;;;;;3.93;3.33;;;21.50;99.90;;;;;;5048571;28;20479;-68
2021/05/15 11:44:56;;;;;;;7.13;2.83;;;20.50;99.90;;;;;;5042398;28;20511;-69
2021/05/15 11:47:24;;;;;;;4.00;3.47;;;19.50;99.90;;;;;;5050514;28;20520;-68
2021/05/15 11:49:58;;;;;;;2.87;2.67;;;19.00;99.90;;;;;;5044574;28;20575;-69
2021/05/15 11:52:35;;;;;;;2.27;1.90;;;18.50;99.90;;;;;;5049955;28;22728;-69
2021/05/15 11:55:03;;;;;;;2.90;1.87;;;17.80;99.90;;;;;;5042937;28;20482;-69
2021/05/15 11:57:31;;;;;;;1.40;1.23;;;16.20;99.90;;;;;;5042635;28;20915;-69
2021/05/15 12:00:09;;;;;;;2.17;1.60;;;15.10;99.90;;;;;;5047958;28;20465;-68
2021/05/15 12:02:35;;;;;;;4.20;1.70;;;14.60;99.90;;;;;;5053296;28;20533;-69
2021/05/15 12:05:13;;;;;;;1.53;1.43;;;14.10;99.90;;;;;;5049669;28;20491;-70
2021/05/15 12:07:45;;;;;;;2.23;1.67;;;13.70;99.90;;;;;;5052802;28;20447;-69
2021/05/15 12:10:15;;;;;;;2.00;1.70;;;13.30;99.90;;;;;;5049546;28;20456;-70
2021/05/15 12:12:52;;;;;;;1.97;1.77;;;13.20;99.90;;;;;;5049255;28;20500;-69
2021/05/15 12:15:19;;;;;;;4.87;2.17;;;13.20;99.90;;;;;;5052076;28;20474;-69
2021/05/15 12:17:46;;;;;;;2.90;1.83;;;13.40;99.90;;;;;;5051090;28;20498;-69
2021/05/15 12:20:24;;;;;;;3.60;1.70;;;13.50;99.90;;;;;;5051722;28;20466;-69
2021/05/15 12:23:01;;;;;;;2.43;1.60;;;13.70;99.90;;;;;;5044517;28;20551;-69
2021/05/15 12:25:28;;;;;;;1.60;1.50;;;13.90;99.90;;;;;;5044907;28;20495;-68
2021/05/15 12:27:55;;;;;;;3.83;2.03;;;14.30;99.90;;;;;;5045610;28;20451;-68
2021/05/15 12:30:24;;;;;;;5.10;1.93;;;14.50;99.90;;;;;;5048941;28;20459;-67
2021/05/15 12:33:00;;;;;;;2.17;1.97;;;14.50;99.90;;;;;;5045233;28;20487;-68
2021/05/15 12:35:27;;;;;;;2.20;1.90;;;14.90;99.90;;;;;;5041896;28;20973;-68
2021/05/15 12:37:56;;;;;;;2.00;1.50;;;14.80;99.90;;;;;;5052529;28;20463;-68
2021/05/15 12:40:27;;;;;;;1.97;1.30;;;14.90;99.90;;;;;;5041990;28;20467;-70
2021/05/15 12:42:55;;;;;;;4.90;1.67;;;14.90;99.90;;;;;;5041063;28;20554;-70
2021/05/15 12:45:22;;;;;;;1.43;1.30;;;15.30;99.90;;;;;;5049348;28;20963;-68
2021/05/15 12:47:49;;;;;;;1.93;1.47;;;16.10;99.90;;;;;;5050918;28;20545;-68
2021/05/15 12:50:17;;;;;;;2.30;1.50;;;16.80;99.90;;;;;;5038698;28;20551;-69